sensor_id;sensor_type;location;lat;lon;timestamp;P1;durP1;ratioP1;P2;durP2;ratioP2
1887;SDS011;944;51.574;6.980;2023-10-08T00:05:09;10.03;;;5.13;;
1887;SDS011;944;51.574;6.980;2023-10-08T00:07:40;10.57;;;5.10;;
1887;SDS011;944;51.574;6.980;2023-10-08T00:10:09;8.97;;;5.03;;
1887;SDS011;944;51.574;6.980;2023-10-08T00:12:37;10.20;;;4.57;;
1887;SDS011;944;51.574;6.980;2023-10-08T00:15:04;7.50;;;4.90;;
1887;SDS011;944;51.574;6.980;2023-10-08T00:21:16;9.90;;;4.80;;
1887;SDS011;944;51.574;6.980;2023-10-08T00:23:45;10.73;;;5.47;;
1887;SDS011;944;51.574;6.980;2023-10-08T00:26:20;11.53;;;4.97;;
1887;SDS011;944;51.574;6.980;2023-10-08T00:28:57;11.50;;;4.70;;
1887;SDS011;944;51.574;6.980;2023-10-08T00:31:31;9.10;;;4.60;;
1887;SDS011;944;51.574;6.980;2023-10-08T00:34:05;17.50;;;4.90;;
1887;SDS011;944;51.574;6.980;2023-10-08T00:36:36;13.20;;;6.20;;
1887;SDS011;944;51.574;6.980;2023-10-08T00:39:04;12.20;;;5.70;;
1887;SDS011;944;51.574;6.980;2023-10-08T00:41:36;8.93;;;5.00;;
1887;SDS011;944;51.574;6.980;2023-10-08T00:47:48;10.43;;;5.47;;
1887;SDS011;944;51.574;6.980;2023-10-08T00:50:18;9.93;;;4.67;;
1887;SDS011;944;51.574;6.980;2023-10-08T00:57:00;11.57;;;5.77;;
1887;SDS011;944;51.574;6.980;2023-10-08T00:59:42;9.13;;;5.30;;
1887;SDS011;944;51.574;6.980;2023-10-08T01:02:25;15.20;;;5.53;;
1887;SDS011;944;51.574;6.980;2023-10-08T01:05:09;10.07;;;4.77;;
1887;SDS011;944;51.574;6.980;2023-10-08T01:11:18;17.40;;;5.07;;
1887;SDS011;944;51.574;6.980;2023-10-08T01:14:00;10.23;;;5.80;;
1887;SDS011;944;51.574;6.980;2023-10-08T01:16:34;13.23;;;5.93;;
1887;SDS011;944;51.574;6.980;2023-10-08T01:19:04;9.47;;;5.10;;
1887;SDS011;944;51.574;6.980;2023-10-08T01:21:52;13.20;;;5.70;;
1887;SDS011;944;51.574;6.980;2023-10-08T01:27:08;10.47;;;5.47;;
1887;SDS011;944;51.574;6.980;2023-10-08T01:29:37;12.70;;;5.20;;
1887;SDS011;944;51.574;6.980;2023-10-08T01:32:04;10.40;;;5.00;;
1887;SDS011;944;51.574;6.980;2023-10-08T01:34:36;12.53;;;4.70;;
1887;SDS011;944;51.574;6.980;2023-10-08T01:37:04;12.40;;;5.20;;
1887;SDS011;944;51.574;6.980;2023-10-08T01:46:55;16.43;;;5.27;;
1887;SDS011;944;51.574;6.980;2023-10-08T01:49:26;10.33;;;6.13;;
1887;SDS011;944;51.574;6.980;2023-10-08T01:52:04;17.47;;;6.10;;
1887;SDS011;944;51.574;6.980;2023-10-08T01:54:38;11.83;;;5.03;;
1887;SDS011;944;51.574;6.980;2023-10-08T01:57:05;10.40;;;6.00;;
1887;SDS011;944;51.574;6.980;2023-10-08T01:59:34;21.33;;;5.00;;
1887;SDS011;944;51.574;6.980;2023-10-08T02:02:06;9.90;;;5.10;;
1887;SDS011;944;51.574;6.980;2023-10-08T02:04:33;11.20;;;5.07;;
1887;SDS011;944;51.574;6.980;2023-10-08T02:07:00;9.10;;;4.37;;
1887;SDS011;944;51.574;6.980;2023-10-08T02:09:32;11.30;;;5.40;;
1887;SDS011;944;51.574;6.980;2023-10-08T02:11:59;9.80;;;5.03;;
1887;SDS011;944;51.574;6.980;2023-10-08T02:14:28;15.10;;;5.23;;
1887;SDS011;944;51.574;6.980;2023-10-08T02:16:57;18.10;;;7.30;;
1887;SDS011;944;51.574;6.980;2023-10-08T02:19:27;9.40;;;5.53;;
1887;SDS011;944;51.574;6.980;2023-10-08T02:21:54;9.30;;;5.23;;
1887;SDS011;944;51.574;6.980;2023-10-08T02:24:23;22.30;;;6.07;;
1887;SDS011;944;51.574;6.980;2023-10-08T02:26:51;18.03;;;6.03;;
1887;SDS011;944;51.574;6.980;2023-10-08T02:29:20;15.93;;;6.60;;
1887;SDS011;944;51.574;6.980;2023-10-08T02:31:57;14.80;;;6.00;;
1887;SDS011;944;51.574;6.980;2023-10-08T02:34:25;12.90;;;5.67;;
1887;SDS011;944;51.574;6.980;2023-10-08T02:36:55;20.33;;;6.10;;
1887;SDS011;944;51.574;6.980;2023-10-08T02:39:22;12.03;;;5.73;;
1887;SDS011;944;51.574;6.980;2023-10-08T02:41:56;14.60;;;5.20;;
1887;SDS011;944;51.574;6.980;2023-10-08T02:44:25;14.83;;;5.80;;
1887;SDS011;944;51.574;6.980;2023-10-08T02:46:52;10.63;;;6.10;;
1887;SDS011;944;51.574;6.980;2023-10-08T02:49:25;11.27;;;5.87;;
1887;SDS011;944;51.574;6.980;2023-10-08T02:51:58;13.50;;;4.80;;
1887;SDS011;944;51.574;6.980;2023-10-08T02:54:25;14.67;;;6.10;;
1887;SDS011;944;51.574;6.980;2023-10-08T02:57:02;12.50;;;5.30;;
1887;SDS011;944;51.574;6.980;2023-10-08T02:59:35;14.77;;;6.13;;
1887;SDS011;944;51.574;6.980;2023-10-08T03:02:05;14.00;;;5.77;;
1887;SDS011;944;51.574;6.980;2023-10-08T03:04:41;13.43;;;6.13;;
1887;SDS011;944;51.574;6.980;2023-10-08T03:07:11;15.77;;;6.10;;
1887;SDS011;944;51.574;6.980;2023-10-08T03:09:46;11.50;;;6.27;;
1887;SDS011;944;51.574;6.980;2023-10-08T03:12:17;13.07;;;5.70;;
1887;SDS011;944;51.574;6.980;2023-10-08T03:14:58;15.97;;;6.70;;
1887;SDS011;944;51.574;6.980;2023-10-08T03:17:37;11.60;;;5.93;;
1887;SDS011;944;51.574;6.980;2023-10-08T03:20:13;14.83;;;6.60;;
1887;SDS011;944;51.574;6.980;2023-10-08T03:22:56;13.07;;;5.43;;
1887;SDS011;944;51.574;6.980;2023-10-08T03:25:23;16.37;;;6.43;;
1887;SDS011;944;51.574;6.980;2023-10-08T03:27:52;19.17;;;5.33;;
1887;SDS011;944;51.574;6.980;2023-10-08T03:30:24;16.87;;;6.57;;
1887;SDS011;944;51.574;6.980;2023-10-08T03:32:51;14.17;;;6.10;;
1887;SDS011;944;51.574;6.980;2023-10-08T03:35:21;13.20;;;6.40;;
1887;SDS011;944;51.574;6.980;2023-10-08T03:37:55;14.97;;;5.80;;
1887;SDS011;944;51.574;6.980;2023-10-08T03:40:46;16.17;;;5.93;;
1887;SDS011;944;51.574;6.980;2023-10-08T03:43:15;15.90;;;5.53;;
1887;SDS011;944;51.574;6.980;2023-10-08T03:46:05;19.90;;;6.50;;
1887;SDS011;944;51.574;6.980;2023-10-08T03:48:40;17.73;;;5.53;;
1887;SDS011;944;51.574;6.980;2023-10-08T03:51:09;14.97;;;6.80;;
1887;SDS011;944;51.574;6.980;2023-10-08T03:53:39;17.40;;;6.20;;
1887;SDS011;944;51.574;6.980;2023-10-08T03:56:23;13.17;;;5.83;;
1887;SDS011;944;51.574;6.980;2023-10-08T03:58:54;16.83;;;5.83;;
1887;SDS011;944;51.574;6.980;2023-10-08T04:01:25;17.80;;;6.40;;
1887;SDS011;944;51.574;6.980;2023-10-08T04:03:56;22.17;;;6.57;;
1887;SDS011;944;51.574;6.980;2023-10-08T04:06:24;21.00;;;5.97;;
1887;SDS011;944;51.574;6.980;2023-10-08T04:09:07;16.83;;;6.73;;
1887;SDS011;944;51.574;6.980;2023-10-08T04:11:41;14.40;;;5.67;;
1887;SDS011;944;51.574;6.980;2023-10-08T04:14:28;20.33;;;5.70;;
1887;SDS011;944;51.574;6.980;2023-10-08T04:16:56;19.67;;;7.23;;
1887;SDS011;944;51.574;6.980;2023-10-08T04:19:24;14.47;;;5.90;;
1887;SDS011;944;51.574;6.980;2023-10-08T04:21:53;21.50;;;6.50;;
1887;SDS011;944;51.574;6.980;2023-10-08T04:24:23;15.57;;;6.60;;
1887;SDS011;944;51.574;6.980;2023-10-08T04:27:03;25.50;;;6.83;;
1887;SDS011;944;51.574;6.980;2023-10-08T04:29:34;14.63;;;6.20;;
1887;SDS011;944;51.574;6.980;2023-10-08T04:32:02;18.30;;;5.93;;
1887;SDS011;944;51.574;6.980;2023-10-08T04:34:37;14.03;;;5.67;;
1887;SDS011;944;51.574;6.980;2023-10-08T04:37:11;21.97;;;6.90;;
1887;SDS011;944;51.574;6.980;2023-10-08T04:39:40;16.73;;;5.63;;
1887;SDS011;944;51.574;6.980;2023-10-08T04:42:12;16.80;;;6.37;;
1887;SDS011;944;51.574;6.980;2023-10-08T04:44:50;13.30;;;5.90;;
1887;SDS011;944;51.574;6.980;2023-10-08T04:47:17;13.63;;;6.10;;
1887;SDS011;944;51.574;6.980;2023-10-08T04:49:56;19.67;;;6.37;;
1887;SDS011;944;51.574;6.980;2023-10-08T04:52:23;14.87;;;5.97;;
1887;SDS011;944;51.574;6.980;2023-10-08T04:54:54;16.40;;;5.60;;
1887;SDS011;944;51.574;6.980;2023-10-08T04:57:21;15.00;;;5.97;;
1887;SDS011;944;51.574;6.980;2023-10-08T04:59:50;16.70;;;6.40;;
1887;SDS011;944;51.574;6.980;2023-10-08T05:02:22;21.90;;;7.17;;
1887;SDS011;944;51.574;6.980;2023-10-08T05:04:59;14.43;;;6.17;;
1887;SDS011;944;51.574;6.980;2023-10-08T05:07:44;15.50;;;6.90;;
1887;SDS011;944;51.574;6.980;2023-10-08T05:10:30;11.83;;;6.10;;
1887;SDS011;944;51.574;6.980;2023-10-08T05:13:15;14.20;;;6.10;;
1887;SDS011;944;51.574;6.980;2023-10-08T05:15:42;16.10;;;6.47;;
1887;SDS011;944;51.574;6.980;2023-10-08T05:18:27;17.40;;;6.80;;
1887;SDS011;944;51.574;6.980;2023-10-08T05:21:19;13.37;;;5.83;;
1887;SDS011;944;51.574;6.980;2023-10-08T05:23:56;13.43;;;5.90;;
1887;SDS011;944;51.574;6.980;2023-10-08T05:26:41;20.70;;;6.37;;
1887;SDS011;944;51.574;6.980;2023-10-08T05:29:14;14.47;;;6.07;;
1887;SDS011;944;51.574;6.980;2023-10-08T05:31:58;17.23;;;6.30;;
1887;SDS011;944;51.574;6.980;2023-10-08T05:34:40;16.50;;;6.23;;
1887;SDS011;944;51.574;6.980;2023-10-08T05:37:16;16.47;;;6.43;;
1887;SDS011;944;51.574;6.980;2023-10-08T05:39:58;22.13;;;6.67;;
1887;SDS011;944;51.574;6.980;2023-10-08T05:42:39;16.03;;;6.50;;
1887;SDS011;944;51.574;6.980;2023-10-08T05:45:12;18.57;;;6.80;;
1887;SDS011;944;51.574;6.980;2023-10-08T05:47:54;20.83;;;6.27;;
1887;SDS011;944;51.574;6.980;2023-10-08T05:50:40;11.53;;;5.60;;
1887;SDS011;944;51.574;6.980;2023-10-08T05:53:20;17.37;;;5.93;;
1887;SDS011;944;51.574;6.980;2023-10-08T05:56:08;13.53;;;6.20;;
1887;SDS011;944;51.574;6.980;2023-10-08T05:58:54;17.57;;;5.60;;
1887;SDS011;944;51.574;6.980;2023-10-08T06:01:40;15.93;;;6.43;;
1887;SDS011;944;51.574;6.980;2023-10-08T06:04:11;16.53;;;6.37;;
1887;SDS011;944;51.574;6.980;2023-10-08T06:06:56;18.10;;;6.67;;
1887;SDS011;944;51.574;6.980;2023-10-08T06:09:37;13.70;;;6.63;;
1887;SDS011;944;51.574;6.980;2023-10-08T06:12:05;19.43;;;6.43;;
1887;SDS011;944;51.574;6.980;2023-10-08T06:14:46;20.03;;;6.90;;
1887;SDS011;944;51.574;6.980;2023-10-08T06:17:31;15.67;;;6.57;;
1887;SDS011;944;51.574;6.980;2023-10-08T06:20:21;17.33;;;7.20;;
1887;SDS011;944;51.574;6.980;2023-10-08T06:22:51;17.90;;;5.93;;
1887;SDS011;944;51.574;6.980;2023-10-08T06:25:25;13.03;;;6.30;;
1887;SDS011;944;51.574;6.980;2023-10-08T06:27:53;19.60;;;6.97;;
1887;SDS011;944;51.574;6.980;2023-10-08T06:30:23;18.30;;;7.10;;
1887;SDS011;944;51.574;6.980;2023-10-08T06:32:54;13.30;;;6.50;;
1887;SDS011;944;51.574;6.980;2023-10-08T06:35:22;17.33;;;7.40;;
1887;SDS011;944;51.574;6.980;2023-10-08T06:37:52;16.37;;;6.23;;
1887;SDS011;944;51.574;6.980;2023-10-08T06:40:24;16.30;;;6.40;;
1887;SDS011;944;51.574;6.980;2023-10-08T06:43:14;20.63;;;7.00;;
1887;SDS011;944;51.574;6.980;2023-10-08T06:45:44;21.63;;;7.10;;
1887;SDS011;944;51.574;6.980;2023-10-08T06:48:12;14.67;;;6.17;;
1887;SDS011;944;51.574;6.980;2023-10-08T06:50:45;22.50;;;7.80;;
1887;SDS011;944;51.574;6.980;2023-10-08T06:53:13;15.93;;;6.47;;
1887;SDS011;944;51.574;6.980;2023-10-08T06:55:43;14.50;;;6.30;;
1887;SDS011;944;51.574;6.980;2023-10-08T06:58:13;14.93;;;6.50;;
1887;SDS011;944;51.574;6.980;2023-10-08T07:00:42;16.00;;;7.57;;
1887;SDS011;944;51.574;6.980;2023-10-08T07:03:13;16.73;;;6.13;;
1887;SDS011;944;51.574;6.980;2023-10-08T07:05:43;17.03;;;7.37;;
1887;SDS011;944;51.574;6.980;2023-10-08T07:08:19;18.20;;;6.73;;
1887;SDS011;944;51.574;6.980;2023-10-08T07:10:48;18.03;;;6.70;;
1887;SDS011;944;51.574;6.980;2023-10-08T07:13:15;17.40;;;7.40;;
1887;SDS011;944;51.574;6.980;2023-10-08T07:15:46;20.50;;;6.80;;
1887;SDS011;944;51.574;6.980;2023-10-08T07:18:13;19.53;;;7.83;;
1887;SDS011;944;51.574;6.980;2023-10-08T07:20:47;16.20;;;6.97;;
1887;SDS011;944;51.574;6.980;2023-10-08T07:23:18;14.57;;;7.73;;
1887;SDS011;944;51.574;6.980;2023-10-08T07:25:53;21.97;;;7.70;;
1887;SDS011;944;51.574;6.980;2023-10-08T07:28:24;23.87;;;8.47;;
1887;SDS011;944;51.574;6.980;2023-10-08T07:30:53;20.80;;;9.83;;
1887;SDS011;944;51.574;6.980;2023-10-08T07:33:22;18.00;;;9.23;;
1887;SDS011;944;51.574;6.980;2023-10-08T07:35:54;18.00;;;9.20;;
1887;SDS011;944;51.574;6.980;2023-10-08T07:38:27;20.73;;;6.97;;
1887;SDS011;944;51.574;6.980;2023-10-08T07:40:55;11.60;;;7.23;;
1887;SDS011;944;51.574;6.980;2023-10-08T07:43:23;12.70;;;7.33;;
1887;SDS011;944;51.574;6.980;2023-10-08T07:45:50;9.80;;;6.30;;
1887;SDS011;944;51.574;6.980;2023-10-08T07:48:20;9.37;;;5.83;;
1887;SDS011;944;51.574;6.980;2023-10-08T07:50:54;9.83;;;6.73;;
1887;SDS011;944;51.574;6.980;2023-10-08T07:53:22;8.87;;;6.53;;
1887;SDS011;944;51.574;6.980;2023-10-08T07:55:51;17.43;;;6.77;;
1887;SDS011;944;51.574;6.980;2023-10-08T07:58:18;15.53;;;6.07;;
1887;SDS011;944;51.574;6.980;2023-10-08T08:00:45;12.23;;;5.37;;
1887;SDS011;944;51.574;6.980;2023-10-08T08:03:20;12.00;;;4.77;;
1887;SDS011;944;51.574;6.980;2023-10-08T08:05:47;12.10;;;5.37;;
1887;SDS011;944;51.574;6.980;2023-10-08T08:08:18;23.10;;;5.30;;
1887;SDS011;944;51.574;6.980;2023-10-08T08:10:48;7.20;;;4.47;;
1887;SDS011;944;51.574;6.980;2023-10-08T08:13:28;9.53;;;5.70;;
1887;SDS011;944;51.574;6.980;2023-10-08T08:15:55;15.07;;;6.03;;
1887;SDS011;944;51.574;6.980;2023-10-08T08:29:39;3.03;;;2.13;;
1887;SDS011;944;51.574;6.980;2023-10-08T08:35:57;3.00;;;1.90;;
1887;SDS011;944;51.574;6.980;2023-10-08T08:38:26;1.87;;;1.77;;
1887;SDS011;944;51.574;6.980;2023-10-08T08:41:06;2.23;;;1.70;;
1887;SDS011;944;51.574;6.980;2023-10-08T08:43:43;2.30;;;1.90;;
1887;SDS011;944;51.574;6.980;2023-10-08T08:46:20;3.07;;;1.50;;
1887;SDS011;944;51.574;6.980;2023-10-08T08:48:51;1.50;;;1.40;;
1887;SDS011;944;51.574;6.980;2023-10-08T08:51:23;3.07;;;1.70;;
1887;SDS011;944;51.574;6.980;2023-10-08T08:53:54;2.47;;;1.60;;
1887;SDS011;944;51.574;6.980;2023-10-08T08:56:25;6.53;;;1.80;;
1887;SDS011;944;51.574;6.980;2023-10-08T08:59:04;3.00;;;2.20;;
1887;SDS011;944;51.574;6.980;2023-10-08T09:01:41;4.93;;;2.43;;
1887;SDS011;944;51.574;6.980;2023-10-08T09:04:15;9.13;;;2.43;;
1887;SDS011;944;51.574;6.980;2023-10-08T09:06:43;4.43;;;2.50;;
1887;SDS011;944;51.574;6.980;2023-10-08T09:09:10;3.87;;;2.80;;
1887;SDS011;944;51.574;6.980;2023-10-08T09:11:48;3.77;;;2.93;;
1887;SDS011;944;51.574;6.980;2023-10-08T09:14:19;4.90;;;3.17;;
1887;SDS011;944;51.574;6.980;2023-10-08T09:16:49;3.70;;;2.87;;
1887;SDS011;944;51.574;6.980;2023-10-08T09:19:16;2.53;;;2.33;;
1887;SDS011;944;51.574;6.980;2023-10-08T09:21:46;5.20;;;2.83;;
1887;SDS011;944;51.574;6.980;2023-10-08T09:24:29;2.40;;;2.07;;
1887;SDS011;944;51.574;6.980;2023-10-08T09:26:58;2.67;;;2.47;;
1887;SDS011;944;51.574;6.980;2023-10-08T09:29:28;2.13;;;1.90;;
1887;SDS011;944;51.574;6.980;2023-10-08T09:31:56;2.13;;;1.83;;
1887;SDS011;944;51.574;6.980;2023-10-08T09:34:28;6.33;;;1.70;;
1887;SDS011;944;51.574;6.980;2023-10-08T09:36:57;3.13;;;1.30;;
1887;SDS011;944;51.574;6.980;2023-10-08T09:39:28;1.70;;;1.27;;
1887;SDS011;944;51.574;6.980;2023-10-08T09:41:59;2.43;;;1.37;;
1887;SDS011;944;51.574;6.980;2023-10-08T09:44:29;5.77;;;1.40;;
1887;SDS011;944;51.574;6.980;2023-10-08T09:46:59;2.20;;;1.07;;
1887;SDS011;944;51.574;6.980;2023-10-08T09:49:36;2.30;;;1.23;;
1887;SDS011;944;51.574;6.980;2023-10-08T09:52:07;3.67;;;1.93;;
1887;SDS011;944;51.574;6.980;2023-10-08T09:54:36;2.23;;;1.63;;
1887;SDS011;944;51.574;6.980;2023-10-08T09:57:16;7.90;;;2.37;;
1887;SDS011;944;51.574;6.980;2023-10-08T09:59:49;4.90;;;2.33;;
1887;SDS011;944;51.574;6.980;2023-10-08T10:02:21;2.80;;;2.17;;
1887;SDS011;944;51.574;6.980;2023-10-08T10:04:54;7.27;;;2.37;;
1887;SDS011;944;51.574;6.980;2023-10-08T10:07:21;3.17;;;2.10;;
1887;SDS011;944;51.574;6.980;2023-10-08T10:09:49;3.63;;;2.60;;
1887;SDS011;944;51.574;6.980;2023-10-08T10:12:18;3.47;;;2.43;;
1887;SDS011;944;51.574;6.980;2023-10-08T10:14:51;7.80;;;3.07;;
1887;SDS011;944;51.574;6.980;2023-10-08T10:17:22;8.40;;;3.00;;
1887;SDS011;944;51.574;6.980;2023-10-08T10:19:53;5.53;;;3.20;;
1887;SDS011;944;51.574;6.980;2023-10-08T10:22:30;6.87;;;3.40;;
1887;SDS011;944;51.574;6.980;2023-10-08T10:24:59;4.17;;;3.10;;
1887;SDS011;944;51.574;6.980;2023-10-08T10:27:36;5.00;;;3.10;;
1887;SDS011;944;51.574;6.980;2023-10-08T10:30:04;6.30;;;3.20;;
1887;SDS011;944;51.574;6.980;2023-10-08T10:32:39;4.93;;;3.00;;
1887;SDS011;944;51.574;6.980;2023-10-08T10:35:15;10.70;;;3.67;;
1887;SDS011;944;51.574;6.980;2023-10-08T10:37:45;6.97;;;4.23;;
1887;SDS011;944;51.574;6.980;2023-10-08T10:40:19;7.20;;;4.47;;
1887;SDS011;944;51.574;6.980;2023-10-08T10:42:55;9.10;;;5.10;;
1887;SDS011;944;51.574;6.980;2023-10-08T10:45:22;17.13;;;6.33;;
1887;SDS011;944;51.574;6.980;2023-10-08T10:48:07;18.77;;;6.40;;
1887;SDS011;944;51.574;6.980;2023-10-08T10:50:46;9.90;;;6.83;;
1887;SDS011;944;51.574;6.980;2023-10-08T10:53:33;8.87;;;7.00;;
1887;SDS011;944;51.574;6.980;2023-10-08T10:56:09;12.03;;;8.50;;
1887;SDS011;944;51.574;6.980;2023-10-08T10:58:44;14.10;;;9.03;;
1887;SDS011;944;51.574;6.980;2023-10-08T11:01:20;16.53;;;9.00;;
1887;SDS011;944;51.574;6.980;2023-10-08T11:03:55;12.10;;;8.30;;
1887;SDS011;944;51.574;6.980;2023-10-08T11:06:23;9.40;;;7.67;;
1887;SDS011;944;51.574;6.980;2023-10-08T11:08:54;8.93;;;6.90;;
1887;SDS011;944;51.574;6.980;2023-10-08T11:11:26;10.80;;;6.93;;
1887;SDS011;944;51.574;6.980;2023-10-08T11:13:55;3.70;;;3.30;;
1887;SDS011;944;51.574;6.980;2023-10-08T11:16:26;4.50;;;3.00;;
1887;SDS011;944;51.574;6.980;2023-10-08T11:18:57;6.33;;;2.40;;
1887;SDS011;944;51.574;6.980;2023-10-08T11:21:31;2.70;;;2.20;;
1887;SDS011;944;51.574;6.980;2023-10-08T11:24:01;5.90;;;2.17;;
1887;SDS011;944;51.574;6.980;2023-10-08T11:26:35;4.87;;;2.40;;
1887;SDS011;944;51.574;6.980;2023-10-08T11:29:05;5.47;;;1.90;;
1887;SDS011;944;51.574;6.980;2023-10-08T11:31:39;4.57;;;2.27;;
1887;SDS011;944;51.574;6.980;2023-10-08T11:34:10;5.37;;;1.90;;
1887;SDS011;944;51.574;6.980;2023-10-08T11:36:39;3.67;;;1.77;;
1887;SDS011;944;51.574;6.980;2023-10-08T11:39:18;2.60;;;1.70;;
1887;SDS011;944;51.574;6.980;2023-10-08T11:41:57;2.83;;;1.70;;
1887;SDS011;944;51.574;6.980;2023-10-08T11:44:28;1.63;;;1.50;;
1887;SDS011;944;51.574;6.980;2023-10-08T11:46:56;1.97;;;1.73;;
1887;SDS011;944;51.574;6.980;2023-10-08T11:49:31;5.00;;;1.70;;
1887;SDS011;944;51.574;6.980;2023-10-08T11:52:01;3.00;;;1.40;;
1887;SDS011;944;51.574;6.980;2023-10-08T11:54:29;1.43;;;1.10;;
1887;SDS011;944;51.574;6.980;2023-10-08T11:57:00;3.83;;;1.43;;
1887;SDS011;944;51.574;6.980;2023-10-08T11:59:28;1.70;;;1.20;;
1887;SDS011;944;51.574;6.980;2023-10-08T12:01:57;2.67;;;1.50;;
1887;SDS011;944;51.574;6.980;2023-10-08T12:04:24;4.47;;;2.03;;
1887;SDS011;944;51.574;6.980;2023-10-08T12:06:56;3.10;;;1.63;;
1887;SDS011;944;51.574;6.980;2023-10-08T12:09:27;2.27;;;1.60;;
1887;SDS011;944;51.574;6.980;2023-10-08T12:11:54;6.67;;;1.60;;
1887;SDS011;944;51.574;6.980;2023-10-08T12:14:24;4.80;;;1.40;;
1887;SDS011;944;51.574;6.980;2023-10-08T12:16:55;3.77;;;1.70;;
1887;SDS011;944;51.574;6.980;2023-10-08T12:19:25;6.13;;;1.90;;
1887;SDS011;944;51.574;6.980;2023-10-08T12:21:52;6.10;;;1.70;;
1887;SDS011;944;51.574;6.980;2023-10-08T12:24:20;6.70;;;1.67;;
1887;SDS011;944;51.574;6.980;2023-10-08T12:26:47;6.30;;;1.40;;
1887;SDS011;944;51.574;6.980;2023-10-08T12:29:14;9.47;;;1.60;;
1887;SDS011;944;51.574;6.980;2023-10-08T12:31:44;3.37;;;1.50;;
1887;SDS011;944;51.574;6.980;2023-10-08T12:34:12;3.57;;;1.20;;
1887;SDS011;944;51.574;6.980;2023-10-08T12:36:39;3.90;;;1.13;;
1887;SDS011;944;51.574;6.980;2023-10-08T12:39:07;4.47;;;1.80;;
1887;SDS011;944;51.574;6.980;2023-10-08T12:41:41;3.70;;;1.80;;
1887;SDS011;944;51.574;6.980;2023-10-08T12:44:09;4.57;;;1.37;;
1887;SDS011;944;51.574;6.980;2023-10-08T12:46:36;6.80;;;1.70;;
1887;SDS011;944;51.574;6.980;2023-10-08T12:49:06;7.53;;;1.90;;
1887;SDS011;944;51.574;6.980;2023-10-08T12:51:33;6.03;;;1.50;;
1887;SDS011;944;51.574;6.980;2023-10-08T12:54:01;5.07;;;1.50;;
1887;SDS011;944;51.574;6.980;2023-10-08T12:56:31;3.50;;;1.33;;
1887;SDS011;944;51.574;6.980;2023-10-08T12:59:06;3.13;;;1.57;;
1887;SDS011;944;51.574;6.980;2023-10-08T13:01:45;6.07;;;1.60;;
1887;SDS011;944;51.574;6.980;2023-10-08T13:04:16;4.43;;;1.40;;
1887;SDS011;944;51.574;6.980;2023-10-08T13:06:50;5.30;;;1.47;;
1887;SDS011;944;51.574;6.980;2023-10-08T13:09:22;5.53;;;1.67;;
1887;SDS011;944;51.574;6.980;2023-10-08T13:11:49;9.37;;;2.40;;
1887;SDS011;944;51.574;6.980;2023-10-08T13:14:18;5.67;;;1.70;;
1887;SDS011;944;51.574;6.980;2023-10-08T13:16:47;2.80;;;1.50;;
1887;SDS011;944;51.574;6.980;2023-10-08T13:19:18;4.80;;;2.10;;
1887;SDS011;944;51.574;6.980;2023-10-08T13:21:48;9.20;;;1.70;;
1887;SDS011;944;51.574;6.980;2023-10-08T13:24:17;6.27;;;1.70;;
1887;SDS011;944;51.574;6.980;2023-10-08T13:26:44;8.87;;;1.87;;
1887;SDS011;944;51.574;6.980;2023-10-08T13:29:13;5.80;;;1.47;;
1887;SDS011;944;51.574;6.980;2023-10-08T13:31:41;3.60;;;1.37;;
1887;SDS011;944;51.574;6.980;2023-10-08T13:34:08;4.47;;;1.30;;
1887;SDS011;944;51.574;6.980;2023-10-08T13:36:37;4.30;;;1.53;;
1887;SDS011;944;51.574;6.980;2023-10-08T13:39:04;5.70;;;1.63;;
1887;SDS011;944;51.574;6.980;2023-10-08T13:41:34;7.60;;;2.40;;
1887;SDS011;944;51.574;6.980;2023-10-08T13:44:05;8.60;;;1.70;;
1887;SDS011;944;51.574;6.980;2023-10-08T13:46:32;3.40;;;1.70;;
1887;SDS011;944;51.574;6.980;2023-10-08T13:49:03;3.77;;;1.77;;
1887;SDS011;944;51.574;6.980;2023-10-08T13:51:31;4.30;;;1.47;;
1887;SDS011;944;51.574;6.980;2023-10-08T13:54:00;2.93;;;1.50;;
1887;SDS011;944;51.574;6.980;2023-10-08T13:56:31;4.07;;;2.00;;
1887;SDS011;944;51.574;6.980;2023-10-08T13:58:58;6.03;;;1.87;;
1887;SDS011;944;51.574;6.980;2023-10-08T14:01:36;6.27;;;2.10;;
1887;SDS011;944;51.574;6.980;2023-10-08T14:04:09;3.30;;;1.50;;
1887;SDS011;944;51.574;6.980;2023-10-08T14:06:37;7.40;;;2.90;;
1887;SDS011;944;51.574;6.980;2023-10-08T14:09:07;14.10;;;2.20;;
1887;SDS011;944;51.574;6.980;2023-10-08T14:11:37;11.80;;;2.43;;
1887;SDS011;944;51.574;6.980;2023-10-08T14:17:19;2.93;;;1.50;;
1887;SDS011;944;51.574;6.980;2023-10-08T14:20:09;7.50;;;1.97;;
1887;SDS011;944;51.574;6.980;2023-10-08T14:22:39;10.87;;;2.00;;
1887;SDS011;944;51.574;6.980;2023-10-08T14:25:08;5.70;;;2.10;;
1887;SDS011;944;51.574;6.980;2023-10-08T14:27:37;8.00;;;1.80;;
1887;SDS011;944;51.574;6.980;2023-10-08T14:30:06;1.90;;;1.70;;
1887;SDS011;944;51.574;6.980;2023-10-08T14:32:40;2.43;;;1.57;;
1887;SDS011;944;51.574;6.980;2023-10-08T14:35:12;2.60;;;1.90;;
1887;SDS011;944;51.574;6.980;2023-10-08T14:41:38;5.73;;;1.90;;
1887;SDS011;944;51.574;6.980;2023-10-08T14:44:23;6.30;;;2.00;;
1887;SDS011;944;51.574;6.980;2023-10-08T14:46:50;5.13;;;2.23;;
1887;SDS011;944;51.574;6.980;2023-10-08T14:49:22;5.80;;;1.97;;
1887;SDS011;944;51.574;6.980;2023-10-08T14:51:55;3.87;;;1.70;;
1887;SDS011;944;51.574;6.980;2023-10-08T14:54:22;6.23;;;2.20;;
1887;SDS011;944;51.574;6.980;2023-10-08T14:56:53;4.90;;;1.70;;
1887;SDS011;944;51.574;6.980;2023-10-08T14:59:22;8.67;;;2.10;;
1887;SDS011;944;51.574;6.980;2023-10-08T15:01:53;5.83;;;1.87;;
1887;SDS011;944;51.574;6.980;2023-10-08T15:04:20;3.73;;;1.97;;
1887;SDS011;944;51.574;6.980;2023-10-08T15:06:47;7.43;;;1.93;;
1887;SDS011;944;51.574;6.980;2023-10-08T15:09:16;8.37;;;2.20;;
1887;SDS011;944;51.574;6.980;2023-10-08T15:11:46;4.33;;;1.77;;
1887;SDS011;944;51.574;6.980;2023-10-08T15:14:14;3.70;;;2.00;;
1887;SDS011;944;51.574;6.980;2023-10-08T15:16:41;3.67;;;2.33;;
1887;SDS011;944;51.574;6.980;2023-10-08T15:19:11;6.33;;;2.13;;
1887;SDS011;944;51.574;6.980;2023-10-08T15:21:40;7.57;;;2.40;;
1887;SDS011;944;51.574;6.980;2023-10-08T15:24:08;2.20;;;1.60;;
1887;SDS011;944;51.574;6.980;2023-10-08T15:26:38;9.13;;;2.63;;
1887;SDS011;944;51.574;6.980;2023-10-08T15:29:05;5.73;;;2.50;;
1887;SDS011;944;51.574;6.980;2023-10-08T15:35:13;5.70;;;2.47;;
1887;SDS011;944;51.574;6.980;2023-10-08T15:37:44;5.93;;;2.10;;
1887;SDS011;944;51.574;6.980;2023-10-08T15:40:12;4.90;;;1.80;;
1887;SDS011;944;51.574;6.980;2023-10-08T15:42:46;5.80;;;1.83;;
1887;SDS011;944;51.574;6.980;2023-10-08T15:45:16;4.33;;;1.77;;
1887;SDS011;944;51.574;6.980;2023-10-08T15:47:43;6.23;;;2.70;;
1887;SDS011;944;51.574;6.980;2023-10-08T15:50:10;2.73;;;1.60;;
1887;SDS011;944;51.574;6.980;2023-10-08T15:52:37;3.80;;;2.00;;
1887;SDS011;944;51.574;6.980;2023-10-08T16:10:13;9.00;;;2.83;;
1887;SDS011;944;51.574;6.980;2023-10-08T16:12:54;2.80;;;2.07;;
1887;SDS011;944;51.574;6.980;2023-10-08T16:19:08;6.00;;;2.40;;
1887;SDS011;944;51.574;6.980;2023-10-08T16:22:01;3.97;;;2.17;;
1887;SDS011;944;51.574;6.980;2023-10-08T16:28:11;5.97;;;2.80;;
1887;SDS011;944;51.574;6.980;2023-10-08T16:30:43;17.93;;;3.10;;
1887;SDS011;944;51.574;6.980;2023-10-08T16:33:16;6.57;;;2.47;;
1887;SDS011;944;51.574;6.980;2023-10-08T16:35:43;4.13;;;2.20;;
1887;SDS011;944;51.574;6.980;2023-10-08T16:38:15;10.73;;;3.00;;
1887;SDS011;944;51.574;6.980;2023-10-08T16:40:51;5.13;;;2.23;;
1887;SDS011;944;51.574;6.980;2023-10-08T16:47:00;8.27;;;2.97;;
1887;SDS011;944;51.574;6.980;2023-10-08T16:49:28;3.70;;;2.27;;
1887;SDS011;944;51.574;6.980;2023-10-08T16:51:55;3.10;;;2.33;;
1887;SDS011;944;51.574;6.980;2023-10-08T16:58:04;5.43;;;2.07;;
1887;SDS011;944;51.574;6.980;2023-10-08T17:00:36;7.30;;;2.90;;
1887;SDS011;944;51.574;6.980;2023-10-08T17:03:06;9.47;;;3.13;;
1887;SDS011;944;51.574;6.980;2023-10-08T17:05:33;14.00;;;2.80;;
1887;SDS011;944;51.574;6.980;2023-10-08T17:08:01;4.87;;;3.00;;
1887;SDS011;944;51.574;6.980;2023-10-08T17:10:29;7.50;;;3.27;;
1887;SDS011;944;51.574;6.980;2023-10-08T17:13:05;15.20;;;3.27;;
1887;SDS011;944;51.574;6.980;2023-10-08T17:15:35;7.03;;;3.00;;
1887;SDS011;944;51.574;6.980;2023-10-08T17:21:44;10.10;;;3.40;;